createdAt,value
2023-01-06T00:01:49.269Z,101772.28
2023-01-06T00:04:18.436Z,101770.28
2023-01-06T00:06:46.844Z,101769.94
2023-01-06T00:09:15.804Z,101765.44
2023-01-06T00:11:44.217Z,101759.97
2023-01-06T00:14:12.886Z,101757.41
2023-01-06T00:16:43.087Z,101758.78
2023-01-06T00:19:15.674Z,101753.56
2023-01-06T00:21:44.316Z,101741.66
2023-01-06T00:24:13.482Z,101744.75
2023-01-06T00:26:43.498Z,101743.97
2023-01-06T00:29:13.611Z,101740.25
2023-01-06T00:31:45.062Z,101751.28
2023-01-06T00:34:13.779Z,101744.91
2023-01-06T00:36:42.737Z,101752.22
2023-01-06T00:39:13.954Z,101749.63
2023-01-06T00:42:00.424Z,101746.25
2023-01-06T00:44:29.549Z,101743.34
2023-01-06T00:47:02.256Z,101741.28
2023-01-06T00:49:31.669Z,101754.88
2023-01-06T00:52:01.163Z,101745.78
2023-01-06T00:54:30.374Z,101734.22
2023-01-06T00:56:59.530Z,101735.47
2023-01-06T00:59:29.136Z,101750.16
2023-01-06T01:02:01.257Z,101740.56
2023-01-06T01:04:30.775Z,101742.09
2023-01-06T01:07:00.628Z,101736.88
2023-01-06T01:09:32.928Z,101735.94
2023-01-06T01:12:14.726Z,101720.16
2023-01-06T01:14:47.820Z,101722.06
2023-01-06T01:17:22.048Z,101728.00
2023-01-06T01:19:54.536Z,101720.47
2023-01-06T01:22:24.720Z,101726.44
2023-01-06T01:24:54.512Z,101721.56
2023-01-06T01:27:23.291Z,101715.97
2023-01-06T01:29:51.849Z,101715.81
2023-01-06T01:32:22.040Z,101722.00
2023-01-06T01:34:51.532Z,101733.44
2023-01-06T01:37:20.690Z,101733.50
2023-01-06T01:39:49.632Z,101727.25
2023-01-06T01:42:21.506Z,101739.63
2023-01-06T01:45:03.276Z,101731.25
2023-01-06T01:47:50.864Z,101723.78
2023-01-06T01:50:29.044Z,101731.19
2023-01-06T01:53:05.686Z,101716.53
2023-01-06T01:55:36.867Z,101717.13
2023-01-06T01:58:11.213Z,101725.47
2023-01-06T02:00:44.433Z,101721.06
2023-01-06T02:03:16.693Z,101715.38
2023-01-06T02:05:50.579Z,101705.75
2023-01-06T02:08:28.536Z,101695.72
2023-01-06T02:10:57.631Z,101704.06
2023-01-06T02:13:26.755Z,101704.66
2023-01-06T02:16:15.267Z,101694.06
2023-01-06T02:18:59.966Z,101686.97
2023-01-06T02:21:48.294Z,101689.84
2023-01-06T02:24:59.274Z,101682.25
2023-01-06T02:28:09.940Z,101685.78
2023-01-06T02:31:08.005Z,101679.31
2023-01-06T02:33:45.127Z,101664.22
2023-01-06T02:36:38.560Z,101668.66
2023-01-06T02:39:27.694Z,101653.72
2023-01-06T02:42:11.567Z,101644.72
2023-01-06T02:44:51.370Z,101644.38
2023-01-06T02:47:29.197Z,101641.66
2023-01-06T02:50:08.368Z,101633.59
2023-01-06T02:52:47.871Z,101627.91
2023-01-06T02:55:25.488Z,101631.66
2023-01-06T02:58:00.855Z,101618.03
2023-01-06T03:00:37.611Z,101618.56
2023-01-06T03:03:12.256Z,101609.81
2023-01-06T03:05:45.720Z,101612.59
2023-01-06T03:08:24.030Z,101597.56
2023-01-06T03:10:54.632Z,101587.41
2023-01-06T03:13:33.870Z,101584.25
2023-01-06T03:16:02.746Z,101577.53
2023-01-06T03:18:33.039Z,101574.47
2023-01-06T03:21:09.168Z,101566.94
2023-01-06T03:23:41.304Z,101567.72
2023-01-06T03:26:11.436Z,101590.63
2023-01-06T03:28:45.169Z,101576.41
2023-01-06T03:31:20.766Z,101565.28
2023-01-06T03:33:58.491Z,101554.53
2023-01-06T03:36:36.587Z,101556.22
2023-01-06T03:39:16.443Z,101545.41
2023-01-06T03:42:21.292Z,101528.88
2023-01-06T03:45:14.869Z,101529.66
2023-01-06T03:47:53.828Z,101534.66
2023-01-06T03:50:28.249Z,101509.09
2023-01-06T03:53:07.847Z,101508.34
2023-01-06T03:55:41.418Z,101508.84
2023-01-06T03:58:14.018Z,101506.78
2023-01-06T04:00:44.272Z,101509.47
2023-01-06T04:03:15.987Z,101498.94
2023-01-06T04:05:47.579Z,101495.59
2023-01-06T04:08:17.784Z,101515.56
2023-01-06T04:10:46.502Z,101496.81
2023-01-06T04:13:17.491Z,101495.00
2023-01-06T04:15:46.566Z,101491.88
2023-01-06T04:18:15.381Z,101491.25
2023-01-06T04:20:44.100Z,101489.81
2023-01-06T04:23:13.854Z,101483.09
2023-01-06T04:25:45.062Z,101490.03
2023-01-06T04:28:13.850Z,101488.06
2023-01-06T04:30:43.225Z,101475.81
2023-01-06T04:33:11.684Z,101474.06
2023-01-06T04:35:40.375Z,101482.19
2023-01-06T04:38:10.188Z,101472.31
2023-01-06T04:40:39.896Z,101466.88
2023-01-06T04:43:16.303Z,101466.66
2023-01-06T04:45:45.391Z,101459.66
2023-01-06T04:48:14.863Z,101469.41
2023-01-06T04:50:43.636Z,101450.09
2023-01-06T04:53:14.182Z,101446.09
2023-01-06T04:55:44.268Z,101452.06
2023-01-06T04:58:14.391Z,101442.75
2023-01-06T05:00:43.479Z,101436.69
2023-01-06T05:03:12.161Z,101436.81
2023-01-06T05:05:42.762Z,101440.09
2023-01-06T05:08:12.866Z,101428.75
2023-01-06T05:10:42.123Z,101447.38
2023-01-06T05:13:10.786Z,101422.81
2023-01-06T05:15:42.408Z,101424.59
2023-01-06T05:18:11.274Z,101417.81
2023-01-06T05:20:40.216Z,101428.94
2023-01-06T05:23:09.157Z,101430.84
2023-01-06T05:25:37.761Z,101428.38
2023-01-06T05:28:06.692Z,101446.06
2023-01-06T05:30:35.489Z,101431.94
2023-01-06T05:33:07.648Z,101429.56
2023-01-06T05:35:36.540Z,101434.06
2023-01-06T05:38:05.417Z,101425.63
2023-01-06T05:40:36.427Z,101447.31
2023-01-06T05:43:06.395Z,101443.91
2023-01-06T05:45:37.866Z,101445.25
2023-01-06T05:48:10.393Z,101439.81
2023-01-06T05:50:40.234Z,101448.66
2023-01-06T05:53:09.459Z,101439.50
2023-01-06T05:55:40.964Z,101448.41
2023-01-06T05:58:10.082Z,101449.31
2023-01-06T06:00:38.958Z,101452.13
2023-01-06T06:03:26.098Z,101462.53
2023-01-06T06:05:55.173Z,101468.06
2023-01-06T06:08:23.881Z,101474.66
2023-01-06T06:10:52.669Z,101484.34
2023-01-06T06:13:24.498Z,101470.03
2023-01-06T06:15:54.811Z,101469.88
2023-01-06T06:18:26.664Z,101487.06
2023-01-06T06:21:00.885Z,101460.31
2023-01-06T06:23:31.945Z,101487.38
2023-01-06T06:26:00.851Z,101474.38
2023-01-06T06:28:32.621Z,101489.88
2023-01-06T06:31:07.853Z,101462.31
2023-01-06T06:33:40.057Z,101471.78
2023-01-06T06:36:12.299Z,101475.31
2023-01-06T06:38:41.574Z,101488.47
2023-01-06T06:41:10.196Z,101490.47
2023-01-06T06:43:39.647Z,101490.13
2023-01-06T06:46:08.968Z,101497.19
2023-01-06T06:48:39.824Z,101492.34
2023-01-06T06:51:12.560Z,101503.56
2023-01-06T06:53:42.422Z,101497.78
2023-01-06T06:56:11.606Z,101511.53
2023-01-06T06:58:40.769Z,101516.03
2023-01-06T07:01:13.291Z,101509.50
2023-01-06T07:03:43.812Z,101508.56
2023-01-06T07:06:15.415Z,101520.28
2023-01-06T07:08:46.579Z,101534.34
2023-01-06T07:11:16.005Z,101528.13
2023-01-06T07:13:45.781Z,101543.13
2023-01-06T07:16:16.444Z,101558.88
2023-01-06T07:18:46.713Z,101556.19
2023-01-06T07:21:17.771Z,101567.13
2023-01-06T07:23:47.174Z,101563.88
2023-01-06T07:26:18.201Z,101564.69
2023-01-06T07:28:47.617Z,101553.75
2023-01-06T07:31:18.181Z,101576.88
2023-01-06T07:33:48.995Z,101563.88
2023-01-06T07:36:19.423Z,101578.25
2023-01-06T07:38:48.508Z,101566.03
2023-01-06T07:41:18.223Z,101581.13
2023-01-06T07:43:47.123Z,101585.53
2023-01-06T07:46:17.044Z,101573.00
2023-01-06T07:48:48.543Z,101593.16
2023-01-06T07:51:17.063Z,101591.66
2023-01-06T07:53:46.454Z,101594.75
2023-01-06T07:56:21.015Z,101598.88
2023-01-06T07:58:50.767Z,101616.63
2023-01-06T08:01:21.562Z,101620.13
2023-01-06T08:03:52.067Z,101611.88
2023-01-06T08:06:21.026Z,101638.75
2023-01-06T08:08:50.457Z,101632.72
2023-01-06T08:11:20.969Z,101635.41
2023-01-06T08:13:49.912Z,101634.03
2023-01-06T08:16:18.678Z,101637.19
2023-01-06T08:18:47.361Z,101649.09
2023-01-06T08:21:18.109Z,101637.34
2023-01-06T08:23:48.994Z,101633.81
2023-01-06T08:26:20.025Z,101637.69
2023-01-06T08:28:49.318Z,101645.16
2023-01-06T08:31:22.969Z,101654.09
2023-01-06T08:33:54.488Z,101657.31
2023-01-06T08:36:27.492Z,101661.22
2023-01-06T08:38:57.915Z,101652.69
2023-01-06T08:41:27.402Z,101656.19
2023-01-06T08:43:57.219Z,101667.22
2023-01-06T08:46:26.678Z,101666.72
2023-01-06T08:48:58.146Z,101673.25
2023-01-06T08:51:29.457Z,101670.16
2023-01-06T08:53:58.936Z,101666.75
2023-01-06T08:56:32.192Z,101675.47
2023-01-06T08:59:06.886Z,101692.31
2023-01-06T09:01:38.202Z,101685.91
2023-01-06T09:04:09.632Z,101702.94
2023-01-06T09:06:40.172Z,101705.19
2023-01-06T09:09:09.698Z,101709.47
2023-01-06T09:11:39.153Z,101708.19
2023-01-06T09:14:10.824Z,101705.34
2023-01-06T09:16:39.834Z,101709.59
2023-01-06T09:19:11.761Z,101703.03
2023-01-06T09:21:42.992Z,101702.28
2023-01-06T09:24:15.660Z,101695.38
2023-01-06T09:26:44.472Z,101708.84
2023-01-06T09:29:14.186Z,101714.38
2023-01-06T09:31:46.614Z,101717.69
2023-01-06T09:34:16.557Z,101718.34
2023-01-06T09:36:47.235Z,101720.25
2023-01-06T09:39:19.389Z,101720.47
2023-01-06T09:42:21.996Z,101722.84
2023-01-06T09:44:56.786Z,101735.09
2023-01-06T09:47:33.672Z,101745.72
2023-01-06T09:50:09.433Z,101760.38
2023-01-06T09:52:45.609Z,101755.28
2023-01-06T09:55:20.642Z,101761.69
2023-01-06T09:57:53.825Z,101761.91
2023-01-06T10:00:38.815Z,101743.50
2023-01-06T10:03:12.462Z,101758.34
2023-01-06T10:06:01.767Z,101749.16
2023-01-06T10:08:49.155Z,101765.81
2023-01-06T10:11:36.102Z,101758.59
2023-01-06T10:14:20.597Z,101744.97
2023-01-06T10:17:07.736Z,101737.41
2023-01-06T10:20:00.709Z,101764.91
2023-01-06T10:22:44.792Z,101772.69
2023-01-06T10:25:23.030Z,101777.63
2023-01-06T10:28:03.280Z,101789.66
2023-01-06T10:30:44.680Z,101782.91
2023-01-06T10:35:57.821Z,101793.72
2023-01-06T10:38:31.760Z,101775.41
2023-01-06T10:41:13.732Z,101785.69
2023-01-06T10:43:42.724Z,101779.53
2023-01-06T10:46:11.384Z,101788.44
2023-01-06T10:48:41.646Z,101785.44
2023-01-06T10:51:36.511Z,101788.78
2023-01-06T10:54:11.340Z,101777.16
2023-01-06T10:56:47.183Z,101774.81
2023-01-06T10:59:16.383Z,101772.97
2023-01-06T11:01:54.356Z,101774.47
2023-01-06T11:04:26.576Z,101773.66
2023-01-06T11:06:59.761Z,101765.09
2023-01-06T11:09:33.825Z,101770.00
2023-01-06T11:12:13.719Z,101778.19
2023-01-06T11:14:44.267Z,101768.09
2023-01-06T11:17:20.500Z,101781.72
2023-01-06T11:20:09.609Z,101774.22
2023-01-06T11:22:42.057Z,101767.84
2023-01-06T11:25:30.222Z,101773.59
2023-01-06T11:28:20.968Z,101770.78
2023-01-06T11:30:55.985Z,101779.13
2023-01-06T11:33:27.945Z,101775.31
2023-01-06T11:36:03.954Z,101758.97
2023-01-06T11:38:33.141Z,101773.66
2023-01-06T11:41:10.108Z,101776.41
2023-01-06T11:43:47.269Z,101766.59
2023-01-06T11:46:22.836Z,101771.63
2023-01-06T11:49:02.003Z,101765.34
2023-01-06T11:51:49.150Z,101751.97
2023-01-06T11:54:31.726Z,101755.84
2023-01-06T11:57:17.898Z,101749.34
2023-01-06T12:00:07.671Z,101737.78
2023-01-06T12:02:49.978Z,101751.31
2023-01-06T12:05:30.290Z,101750.47
2023-01-06T12:07:59.955Z,101747.97
2023-01-06T12:10:33.963Z,101750.25
2023-01-06T12:13:02.801Z,101748.50
2023-01-06T12:15:35.639Z,101748.66
2023-01-06T12:18:13.824Z,101750.66
2023-01-06T12:20:48.789Z,101745.47
2023-01-06T12:23:24.511Z,101744.25
2023-01-06T12:25:58.626Z,101750.56
2023-01-06T12:28:31.719Z,101730.00
2023-01-06T12:31:14.519Z,101734.88
2023-01-06T12:33:58.471Z,101740.59
2023-01-06T12:36:39.246Z,101729.69
2023-01-06T12:39:14.984Z,101729.69
2023-01-06T12:41:49.824Z,101728.97
2023-01-06T12:44:33.969Z,101739.41
2023-01-06T12:47:13.364Z,101741.84
2023-01-06T12:49:47.734Z,101743.94
2023-01-06T12:52:23.879Z,101753.94
2023-01-06T12:54:59.797Z,101761.22
2023-01-06T12:57:51.486Z,101753.44
2023-01-06T13:00:48.710Z,101769.44
2023-01-06T13:04:03.753Z,101771.22
2023-01-06T13:06:53.408Z,101764.69
2023-01-06T13:09:43.902Z,101758.31
2023-01-06T13:12:52.021Z,101751.97
2023-01-06T13:15:26.905Z,101750.72
2023-01-06T13:18:11.700Z,101754.78
2023-01-06T13:20:48.628Z,101754.69
2023-01-06T13:24:00.004Z,101753.16
2023-01-06T13:27:11.181Z,101755.09
2023-01-06T13:29:54.858Z,101751.34
2023-01-06T13:32:53.936Z,101746.03
2023-01-06T13:36:18.878Z,101751.50
2023-01-06T13:38:59.565Z,101744.94
2023-01-06T13:41:36.139Z,101741.19
2023-01-06T13:44:11.474Z,101744.88
2023-01-06T13:46:42.044Z,101741.28
2023-01-06T13:49:13.180Z,101732.28
2023-01-06T13:51:44.543Z,101723.44
2023-01-06T13:55:28.769Z,101725.97
2023-01-06T13:58:00.289Z,101720.59
2023-01-06T14:00:30.513Z,101720.97
2023-01-06T14:03:24.974Z,101727.72
2023-01-06T14:05:59.040Z,101723.03
2023-01-06T14:08:37.862Z,101711.38
2023-01-06T14:11:29.092Z,101713.88
2023-01-06T14:14:00.711Z,101708.50
2023-01-06T14:16:47.072Z,101716.84
2023-01-06T14:19:22.611Z,101720.75
2023-01-06T14:22:16.498Z,101718.63
2023-01-06T14:24:52.132Z,101722.69
2023-01-06T14:28:23.733Z,101722.66
2023-01-06T14:31:14.025Z,101721.09
2023-01-06T14:33:46.155Z,101724.19
2023-01-06T14:36:18.515Z,101727.28
2023-01-06T14:38:51.209Z,101720.75
2023-01-06T14:41:28.922Z,101719.63
2023-01-06T14:44:03.260Z,101718.00
2023-01-06T14:46:40.187Z,101719.81
2023-01-06T14:49:22.290Z,101713.44
2023-01-06T14:51:55.143Z,101715.28
2023-01-06T14:54:27.836Z,101714.94
2023-01-06T14:56:59.594Z,101720.31
2023-01-06T14:59:28.367Z,101718.47
2023-01-06T15:02:01.770Z,101716.81
2023-01-06T15:04:35.687Z,101725.75
2023-01-06T15:07:19.275Z,101729.25
2023-01-06T15:09:49.872Z,101726.84
2023-01-06T15:12:27.666Z,101726.53
2023-01-06T15:14:57.921Z,101735.69
2023-01-06T15:17:27.371Z,101744.03
2023-01-06T15:19:57.994Z,101739.03
2023-01-06T15:22:27.642Z,101742.88
2023-01-06T15:24:56.859Z,101738.13
2023-01-06T15:27:27.748Z,101735.06
2023-01-06T15:29:58.986Z,101721.22
2023-01-06T15:32:29.575Z,101715.28
2023-01-06T15:35:03.475Z,101723.66
2023-01-06T15:37:35.065Z,101731.69
2023-01-06T15:40:06.202Z,101730.53
2023-01-06T15:42:38.403Z,101740.88
2023-01-06T15:45:22.860Z,101747.09
2023-01-06T15:47:55.215Z,101749.88
2023-01-06T15:50:32.733Z,101745.09
2023-01-06T15:53:06.097Z,101748.88
2023-01-06T15:55:36.975Z,101757.03
2023-01-06T15:58:10.035Z,101753.31
2023-01-06T16:00:49.815Z,101742.91
2023-01-06T16:03:26.993Z,101739.06
2023-01-06T16:06:12.227Z,101733.63
2023-01-06T16:08:44.853Z,101729.53
2023-01-06T16:11:46.014Z,101730.09
2023-01-06T16:14:33.207Z,101722.69
2023-01-06T16:17:10.024Z,101716.03
2023-01-06T16:19:46.936Z,101723.09
2023-01-06T16:22:39.957Z,101723.66
2023-01-06T16:25:25.853Z,101719.72
2023-01-06T16:27:59.804Z,101728.53
2023-01-06T16:30:31.218Z,101731.31
2023-01-06T16:33:25.513Z,101725.56
2023-01-06T16:35:57.876Z,101726.44
2023-01-06T16:38:29.331Z,101724.56
2023-01-06T16:41:01.696Z,101726.28
2023-01-06T16:43:35.449Z,101735.09
2023-01-06T16:46:16.389Z,101715.97
2023-01-06T16:48:45.276Z,101724.66
2023-01-06T16:51:19.138Z,101732.06
2023-01-06T16:53:49.934Z,101724.25
2023-01-06T16:56:23.108Z,101723.47
2023-01-06T16:58:58.655Z,101722.41
2023-01-06T17:01:31.522Z,101723.34
2023-01-06T17:04:03.679Z,101722.63
2023-01-06T17:06:34.024Z,101730.00
2023-01-06T17:09:11.556Z,101720.31
2023-01-06T17:11:40.417Z,101731.44
2023-01-06T17:14:17.586Z,101727.16
2023-01-06T17:16:51.300Z,101724.03
2023-01-06T17:19:25.683Z,101721.69
2023-01-06T17:22:03.211Z,101732.03
2023-01-06T17:24:33.855Z,101731.09
2023-01-06T17:27:19.558Z,101720.47
2023-01-06T17:29:48.778Z,101728.03
2023-01-06T17:32:23.989Z,101721.06
2023-01-06T17:34:58.380Z,101731.31
2023-01-06T17:37:32.666Z,101721.94
2023-01-06T17:40:13.570Z,101715.63
2023-01-06T17:42:45.608Z,101720.59
2023-01-06T17:45:23.974Z,101726.06
2023-01-06T17:47:54.959Z,101722.81
2023-01-06T17:50:35.668Z,101727.47
2023-01-06T17:53:34.650Z,101728.22
2023-01-06T17:56:14.989Z,101731.66
2023-01-06T17:58:47.441Z,101731.75
2023-01-06T18:01:24.633Z,101722.94
2023-01-06T18:03:57.519Z,101741.09
2023-01-06T18:06:30.482Z,101727.16
2023-01-06T18:09:12.505Z,101721.69
2023-01-06T18:11:52.889Z,101719.94
2023-01-06T18:14:30.254Z,101721.31
2023-01-06T18:17:01.005Z,101718.72
2023-01-06T18:19:37.638Z,101716.41
2023-01-06T18:22:19.139Z,101721.44
2023-01-06T18:24:50.089Z,101716.56
2023-01-06T18:27:25.841Z,101714.81
2023-01-06T18:29:57.791Z,101714.91
2023-01-06T18:32:33.610Z,101717.72
2023-01-06T18:35:06.528Z,101719.88
2023-01-06T18:37:37.818Z,101710.97
2023-01-06T18:40:13.118Z,101703.31
2023-01-06T18:42:45.317Z,101705.53
2023-01-06T18:45:25.438Z,101711.22
2023-01-06T18:47:58.556Z,101702.53
2023-01-06T18:50:38.867Z,101707.13
2023-01-06T18:53:22.344Z,101705.19
2023-01-06T18:55:52.436Z,101716.97
2023-01-06T18:58:47.556Z,101708.44
2023-01-06T19:01:20.999Z,101717.72
2023-01-06T19:04:05.476Z,101715.91
2023-01-06T19:06:48.231Z,101702.50
2023-01-06T19:09:34.502Z,101683.50
2023-01-06T19:12:18.241Z,101690.25
2023-01-06T19:14:53.181Z,101691.59
2023-01-06T19:17:27.299Z,101685.34
2023-01-06T19:19:57.416Z,101688.91
2023-01-06T19:22:28.627Z,101703.03
2023-01-06T19:25:18.335Z,101705.34
2023-01-06T19:30:53.591Z,101711.59
2023-01-06T19:33:40.025Z,101692.16
2023-01-06T19:36:42.662Z,101698.69
2023-01-06T19:39:32.866Z,101694.88
2023-01-06T19:42:17.620Z,101696.66
2023-01-06T19:44:49.273Z,101686.28
2023-01-06T19:47:26.092Z,101683.06
2023-01-06T19:49:59.914Z,101671.50
2023-01-06T19:52:34.606Z,101660.28
2023-01-06T19:55:20.401Z,101668.38
2023-01-06T19:57:51.986Z,101655.75
2023-01-06T20:00:31.266Z,101663.25
2023-01-06T20:03:04.710Z,101656.00
2023-01-06T20:05:34.439Z,101675.56
2023-01-06T20:08:03.934Z,101672.31
2023-01-06T20:10:32.876Z,101673.47
2023-01-06T20:13:06.088Z,101683.56
2023-01-06T20:15:34.804Z,101676.88
2023-01-06T20:18:06.839Z,101647.50
2023-01-06T20:20:36.617Z,101629.66
2023-01-06T20:23:08.282Z,101649.53
2023-01-06T20:25:37.266Z,101651.28
2023-01-06T20:28:06.865Z,101657.53
2023-01-06T20:30:36.058Z,101670.09
2023-01-06T20:33:07.195Z,101672.00
2023-01-06T20:35:36.701Z,101673.88
2023-01-06T20:38:06.218Z,101675.38
2023-01-06T20:40:35.954Z,101662.38
2023-01-06T20:45:49.581Z,101659.84
2023-01-06T20:48:19.829Z,101665.06
2023-01-06T20:50:48.891Z,101657.88
2023-01-06T20:53:18.236Z,101655.47
2023-01-06T20:55:47.176Z,101659.66
2023-01-06T20:58:16.439Z,101650.19
2023-01-06T21:00:45.765Z,101645.34
2023-01-06T21:03:19.558Z,101652.88
2023-01-06T21:05:49.867Z,101637.84
2023-01-06T21:08:20.822Z,101644.56
2023-01-06T21:10:49.513Z,101648.34
2023-01-06T21:13:24.015Z,101661.88
2023-01-06T21:15:53.390Z,101650.84
2023-01-06T21:18:25.707Z,101654.88
2023-01-06T21:20:59.062Z,101658.41
2023-01-06T21:23:28.275Z,101654.84
2023-01-06T21:25:57.983Z,101656.63
2023-01-06T21:28:29.630Z,101655.66
2023-01-06T21:30:58.611Z,101660.31
2023-01-06T21:33:28.031Z,101648.91
2023-01-06T21:35:58.472Z,101652.50
2023-01-06T21:38:27.678Z,101652.03
2023-01-06T21:41:23.787Z,101639.59
2023-01-06T21:43:51.490Z,101651.13
2023-01-06T21:46:20.461Z,101641.59
2023-01-06T21:48:50.464Z,101630.94
2023-01-06T21:51:20.881Z,101631.69
2023-01-06T21:53:50.908Z,101633.25
2023-01-06T21:56:19.809Z,101639.66
2023-01-06T21:58:51.980Z,101634.63
2023-01-06T22:01:24.528Z,101644.66
2023-01-06T22:03:53.584Z,101653.03
2023-01-06T22:06:25.396Z,101643.97
2023-01-06T22:08:56.423Z,101649.03
2023-01-06T22:11:25.367Z,101652.00
2023-01-06T22:13:54.974Z,101651.78
2023-01-06T22:16:28.353Z,101659.34
2023-01-06T22:18:59.236Z,101651.53
2023-01-06T22:21:30.071Z,101665.84
2023-01-06T22:24:02.512Z,101655.56
2023-01-06T22:26:34.719Z,101647.56
2023-01-06T22:29:03.208Z,101660.91
2023-01-06T22:31:34.303Z,101650.78
2023-01-06T22:34:03.032Z,101654.47
2023-01-06T22:36:36.170Z,101657.47
2023-01-06T22:39:07.765Z,101653.44
2023-01-06T22:41:36.410Z,101656.25
2023-01-06T22:44:07.022Z,101666.84
2023-01-06T22:46:36.221Z,101653.91
2023-01-06T22:49:05.932Z,101670.09
2023-01-06T22:51:36.721Z,101672.94
2023-01-06T22:54:05.527Z,101668.38
2023-01-06T22:56:35.249Z,101649.56
2023-01-06T22:59:05.554Z,101655.31
2023-01-06T23:01:34.461Z,101649.91
2023-01-06T23:04:03.552Z,101652.16
2023-01-06T23:06:35.454Z,101643.69
2023-01-06T23:09:07.965Z,101648.31
2023-01-06T23:11:42.300Z,101648.34
2023-01-06T23:14:15.276Z,101650.84
2023-01-06T23:16:45.616Z,101653.66
2023-01-06T23:19:21.240Z,101640.16
2023-01-06T23:21:50.139Z,101652.88
2023-01-06T23:24:20.038Z,101644.25
2023-01-06T23:26:49.788Z,101651.00
2023-01-06T23:29:20.656Z,101647.09
2023-01-06T23:31:49.821Z,101643.47
2023-01-06T23:34:21.156Z,101641.09
2023-01-06T23:36:50.410Z,101640.38
2023-01-06T23:39:20.682Z,101629.34
2023-01-06T23:41:49.839Z,101629.75
2023-01-06T23:44:20.717Z,101628.03
2023-01-06T23:47:03.201Z,101636.34
2023-01-06T23:49:34.335Z,101622.06
2023-01-06T23:52:03.633Z,101619.00
2023-01-06T23:54:34.198Z,101630.81
2023-01-06T23:57:03.269Z,101626.63
2023-01-06T23:59:32.566Z,101628.47
